Time;durP1;ratioP1;P1;durP2;ratioP2;P2;SDS_P1;SDS_P2;PMS_P1;PMS_P2;Temp;Humidity;BMP_temperature;BMP_pressure;BME280_temperature;BME280_humidity;BME280_pressure;Samples;Min_cycle;Max_cycle;Signal;HPM_P1;HPM_P2
2023/01/12 00:01:22;;;;;;;6.82;4.45;;;;;;;;;;5044742;28;20028;-45
2023/01/12 00:03:49;;;;;;;4.40;3.65;;;;;;;;;;5045282;28;20069;-43
2023/01/12 00:06:18;;;;;;;6.72;4.05;;;;;;;;;;5046471;28;20440;-44
2023/01/12 00:08:48;;;;;;;6.65;4.20;;;;;;;;;;5045430;28;20035;-44
2023/01/12 00:11:15;;;;;;;6.47;3.50;;;;;;;;;;5045423;28;20029;-44
2023/01/12 00:13:41;;;;;;;4.07;3.10;;;;;;;;;;5044864;28;20087;-43
2023/01/12 00:18:58;;;;;;;5.25;3.30;;;;;;;;;;5026887;28;20099;-43
2023/01/12 00:21:25;;;;;;;6.40;4.35;;;;;;;;;;5042208;28;20036;-44
2023/01/12 00:23:51;;;;;;;6.22;4.03;;;;;;;;;;5046400;28;20079;-43
2023/01/12 00:26:17;;;;;;;6.93;4.25;;;;;;;;;;5046311;28;20020;-43
2023/01/12 00:28:43;;;;;;;6.13;3.72;;;;;;;;;;5046665;28;20518;-43
2023/01/12 00:31:10;;;;;;;5.40;3.60;;;;;;;;;;5044840;28;20132;-44
2023/01/12 00:33:37;;;;;;;6.72;3.63;;;;;;;;;;5046107;28;20111;-43
2023/01/12 00:36:21;;;;;;;4.97;3.58;;;;;;;;;;5046704;28;20024;-43
2023/01/12 00:38:47;;;;;;;5.30;3.88;;;;;;;;;;5025915;28;20143;-43
2023/01/12 00:45:20;;;;;;;6.50;4.00;;;;;;;;;;5026585;28;20484;-44
2023/01/12 00:46:44;;;;;;;5.55;4.18;;;;;;;;;;5026408;28;20037;-43
2023/01/12 00:49:11;;;;;;;6.80;4.07;;;;;;;;;;5026060;28;20034;-44
2023/01/12 00:51:37;;;;;;;6.13;4.28;;;;;;;;;;5051543;28;20487;-44
2023/01/12 00:54:03;;;;;;;5.85;3.95;;;;;;;;;;5046400;28;20025;-44
2023/01/12 00:56:30;;;;;;;5.35;3.42;;;;;;;;;;5045985;28;20032;-44
2023/01/12 00:58:56;;;;;;;6.47;4.03;;;;;;;;;;5040508;28;21200;-45
2023/01/12 01:01:23;;;;;;;6.35;4.25;;;;;;;;;;5044796;28;20028;-44
2023/01/12 01:03:50;;;;;;;5.20;3.70;;;;;;;;;;5046954;28;20039;-43
2023/01/12 06:11:05;;;;;;;8.00;3.72;;;;;;;;;;5047725;28;20495;-43
2023/01/12 06:16:15;;;;;;;7.63;3.63;;;;;;;;;;5027639;28;19959;-44
2023/01/12 06:18:41;;;;;;;6.65;3.60;;;;;;;;;;5027373;28;20034;-44
2023/01/12 06:21:09;;;;;;;6.70;4.10;;;;;;;;;;5027243;28;20083;-43
2023/01/12 06:23:35;;;;;;;7.63;3.88;;;;;;;;;;5027475;28;20022;-43
2023/01/12 06:26:02;;;;;;;7.35;3.95;;;;;;;;;;5040232;28;20039;-43
2023/01/12 06:28:28;;;;;;;8.05;4.13;;;;;;;;;;5046889;28;20090;-43
2023/01/12 06:30:55;;;;;;;8.50;4.28;;;;;;;;;;5047343;28;20060;-44
2023/01/12 06:33:21;;;;;;;5.95;3.53;;;;;;;;;;5047016;28;20508;-43
2023/01/12 06:35:48;;;;;;;6.25;3.58;;;;;;;;;;5047108;28;20577;-44
2023/01/12 06:38:15;;;;;;;4.85;3.20;;;;;;;;;;5046369;28;20064;-44
2023/01/12 06:40:41;;;;;;;4.82;3.35;;;;;;;;;;5046656;28;20075;-44
2023/01/12 06:43:07;;;;;;;4.68;3.00;;;;;;;;;;5046782;28;20053;-44
2023/01/12 06:45:33;;;;;;;4.82;2.58;;;;;;;;;;5047170;28;20033;-46
2023/01/12 06:47:59;;;;;;;3.35;2.03;;;;;;;;;;5047024;28;20043;-43
2023/01/12 06:50:25;;;;;;;4.57;2.35;;;;;;;;;;5047429;28;20059;-43
2023/01/12 06:52:51;;;;;;;2.88;1.73;;;;;;;;;;5046028;28;20065;-43
2023/01/12 06:55:17;;;;;;;3.67;1.63;;;;;;;;;;5046739;28;20037;-43
2023/01/12 06:57:44;;;;;;;2.28;1.73;;;;;;;;;;5046825;28;20424;-43
2023/01/12 07:00:12;;;;;;;4.03;1.80;;;;;;;;;;5045136;28;20522;-44
2023/01/12 07:02:38;;;;;;;3.42;1.85;;;;;;;;;;5034415;28;20608;-43
2023/01/12 07:05:04;;;;;;;2.92;1.52;;;;;;;;;;5044195;28;20040;-44
2023/01/12 07:07:30;;;;;;;3.30;1.63;;;;;;;;;;5048040;28;20031;-45
2023/01/12 07:09:56;;;;;;;2.85;1.60;;;;;;;;;;5029981;28;20029;-44
2023/01/12 07:12:22;;;;;;;2.88;1.60;;;;;;;;;;5044033;28;20420;-44
2023/01/12 07:14:48;;;;;;;4.60;2.33;;;;;;;;;;5046088;28;20040;-43
2023/01/12 07:17:15;;;;;;;4.45;2.67;;;;;;;;;;5048125;28;20530;-43
2023/01/12 07:19:42;;;;;;;4.30;2.90;;;;;;;;;;5048354;28;20120;-43
2023/01/12 07:22:08;;;;;;;5.22;3.15;;;;;;;;;;5051749;28;20017;-43
2023/01/12 07:24:35;;;;;;;5.38;3.10;;;;;;;;;;5051900;28;20032;-45
2023/01/12 07:27:01;;;;;;;5.93;3.17;;;;;;;;;;5051997;28;20029;-44
2023/01/12 07:29:27;;;;;;;6.30;2.90;;;;;;;;;;5051210;28;20702;-43
2023/01/12 07:31:53;;;;;;;4.15;3.08;;;;;;;;;;5051086;28;20100;-45
2023/01/12 07:34:19;;;;;;;6.57;3.28;;;;;;;;;;5052098;28;20385;-44
2023/01/12 07:36:47;;;;;;;5.93;3.53;;;;;;;;;;5051923;28;20086;-43
2023/01/12 07:39:13;;;;;;;7.13;3.80;;;;;;;;;;5051759;28;20029;-43
2023/01/12 07:44:24;;;;;;;5.90;4.38;;;;;;;;;;5051881;28;20079;-44
2023/01/12 07:46:50;;;;;;;6.80;3.88;;;;;;;;;;5050861;28;20104;-45
2023/01/12 07:49:16;;;;;;;5.53;3.30;;;;;;;;;;5051440;28;20040;-44
2023/01/12 07:51:42;;;;;;;4.65;2.85;;;;;;;;;;5051335;28;20033;-44
2023/01/12 07:54:08;;;;;;;4.97;3.05;;;;;;;;;;5051368;28;20033;-47
2023/01/12 07:56:35;;;;;;;5.65;3.00;;;;;;;;;;5051298;28;20025;-44
2023/01/12 07:59:01;;;;;;;6.63;3.42;;;;;;;;;;5050215;28;20029;-44
2023/01/12 08:01:27;;;;;;;6.35;3.30;;;;;;;;;;5052515;28;20781;-44
2023/01/12 08:03:53;;;;;;;5.72;3.40;;;;;;;;;;5051781;28;20059;-44
2023/01/12 08:06:19;;;;;;;5.70;3.50;;;;;;;;;;5050981;28;20029;-45
2023/01/12 08:08:45;;;;;;;6.35;3.10;;;;;;;;;;5051155;28;20032;-44
2023/01/12 08:11:11;;;;;;;5.18;3.17;;;;;;;;;;5050242;28;20074;-45
2023/01/12 08:13:39;;;;;;;4.65;2.70;;;;;;;;;;5043958;28;20086;-44
2023/01/12 08:16:08;;;;;;;6.20;3.08;;;;;;;;;;5049186;28;20435;-44
2023/01/12 08:18:39;;;;;;;5.80;3.30;;;;;;;;;;5049847;28;20028;-44
2023/01/12 08:21:08;;;;;;;4.55;2.20;;;;;;;;;;5050003;28;20060;-44
2023/01/12 08:23:43;;;;;;;5.63;2.88;;;;;;;;;;5049357;28;20431;-43
2023/01/12 08:26:14;;;;;;;4.55;2.83;;;;;;;;;;5045990;28;20029;-43
2023/01/12 08:28:43;;;;;;;3.38;2.45;;;;;;;;;;5047931;28;20024;-44
2023/01/12 08:31:12;;;;;;;4.65;2.60;;;;;;;;;;5042279;28;20063;-43
2023/01/12 08:33:39;;;;;;;3.08;2.28;;;;;;;;;;5039900;28;20040;-43
2023/01/12 08:36:07;;;;;;;3.88;2.33;;;;;;;;;;5049935;28;20395;-44
2023/01/12 08:38:33;;;;;;;3.85;2.50;;;;;;;;;;5049721;28;20030;-45
2023/01/12 08:44:02;;;;;;;4.35;2.03;;;;;;;;;;5048033;28;20101;-44
2023/01/12 08:49:07;;;;;;;4.70;2.25;;;;;;;;;;5795968;22;20489;-43
2023/01/12 08:51:34;;;;;;;3.85;2.38;;;;;;;;;;5108464;28;20034;-45
2023/01/12 08:54:01;;;;;;;4.57;2.30;;;;;;;;;;5109354;28;20032;-45
2023/01/12 08:56:28;;;;;;;4.03;2.15;;;;;;;;;;5110311;28;20024;-46
2023/01/12 08:58:54;;;;;;;2.90;2.08;;;;;;;;;;5096319;28;20031;-46
2023/01/12 09:01:20;;;;;;;4.43;2.10;;;;;;;;;;5098998;28;20028;-46
2023/01/12 09:03:47;;;;;;;4.72;2.72;;;;;;;;;;5103350;28;20019;-45
2023/01/12 09:06:15;;;;;;;4.20;2.60;;;;;;;;;;5109800;28;20028;-47
2023/01/12 09:08:41;;;;;;;4.65;2.22;;;;;;;;;;5109543;28;20389;-44
2023/01/12 09:11:08;;;;;;;3.75;2.30;;;;;;;;;;5107057;27;20039;-44
2023/01/12 09:13:34;;;;;;;5.07;2.20;;;;;;;;;;5105985;28;20098;-46
2023/01/12 09:16:07;;;;;;;3.30;2.65;;;;;;;;;;5107882;28;20075;-46
2023/01/12 09:18:34;;;;;;;3.35;2.17;;;;;;;;;;5108546;28;20030;-46
2023/01/12 09:21:04;;;;;;;3.10;2.10;;;;;;;;;;5089525;28;20024;-45
2023/01/12 09:23:30;;;;;;;3.95;2.78;;;;;;;;;;5107387;28;20055;-45
2023/01/12 09:25:56;;;;;;;4.30;2.53;;;;;;;;;;5100065;28;20046;-44
2023/01/12 09:28:22;;;;;;;2.97;2.33;;;;;;;;;;5107147;28;20110;-44
2023/01/12 09:30:48;;;;;;;3.95;2.40;;;;;;;;;;5107468;28;20494;-44
2023/01/12 09:33:14;;;;;;;5.00;2.58;;;;;;;;;;5106873;28;20059;-43
2023/01/12 09:35:43;;;;;;;4.70;2.80;;;;;;;;;;5107631;28;20387;-43
2023/01/12 09:38:09;;;;;;;4.38;2.10;;;;;;;;;;5108393;28;20046;-45
2023/01/12 09:40:35;;;;;;;3.92;2.17;;;;;;;;;;5108896;28;20498;-46
2023/01/12 09:48:31;;;;;;;4.05;2.05;;;;;;;;;;5106070;28;20120;-44
2023/01/12 09:51:01;;;;;;;4.07;2.10;;;;;;;;;;5107698;28;20048;-46
2023/01/12 09:53:32;;;;;;;2.80;1.70;;;;;;;;;;5107914;28;20032;-43
2023/01/12 09:56:18;;;;;;;3.28;2.40;;;;;;;;;;5128265;27;20564;-44
2023/01/12 09:58:47;;;;;;;3.22;1.90;;;;;;;;;;5110944;27;20039;-44
2023/01/12 10:01:15;;;;;;;3.10;2.13;;;;;;;;;;5128559;27;20030;-43
2023/01/12 10:03:42;;;;;;;2.47;1.75;;;;;;;;;;5128182;27;20154;-44
2023/01/12 10:06:13;;;;;;;2.42;1.75;;;;;;;;;;5122749;27;20020;-44
2023/01/12 10:08:48;;;;;;;2.67;1.85;;;;;;;;;;5087351;28;20028;-48
2023/01/12 10:11:33;;;;;;;2.60;1.80;;;;;;;;;;5101800;28;20031;-44
2023/01/12 10:13:59;;;;;;;;;;;;;;;;;;5101225;28;20034;-45
2023/01/12 10:16:31;;;;;;;2.13;1.48;;;;;;;;;;5105152;28;20547;-44
2023/01/12 10:18:58;;;;;;;3.03;1.83;;;;;;;;;;5107541;28;20035;-45
2023/01/12 10:21:31;;;;;;;2.63;1.60;;;;;;;;;;5117054;27;20091;-43
2023/01/12 10:23:59;;;;;;;2.33;1.45;;;;;;;;;;5103991;28;20044;-44
2023/01/12 10:26:28;;;;;;;2.90;1.80;;;;;;;;;;5107289;28;20011;-45
2023/01/12 10:28:55;;;;;;;1.85;1.58;;;;;;;;;;5107141;28;20098;-43
2023/01/12 10:31:23;;;;;;;3.40;1.70;;;;;;;;;;5121340;27;20489;-44
2023/01/12 10:34:05;;;;;;;3.00;1.95;;;;;;;;;;5128402;27;20035;-44
2023/01/12 10:36:33;;;;;;;2.60;1.80;;;;;;;;;;5127640;27;20796;-44
2023/01/12 10:39:04;;;;;;;2.58;1.60;;;;;;;;;;5106568;28;20597;-45
2023/01/12 10:41:31;;;;;;;3.65;1.88;;;;;;;;;;5086823;28;20028;-44
2023/01/12 10:44:00;;;;;;;2.95;1.60;;;;;;;;;;5104134;28;20024;-43
2023/01/12 10:46:27;;;;;;;3.33;2.00;;;;;;;;;;5106402;28;20027;-45
2023/01/12 10:48:54;;;;;;;2.08;1.60;;;;;;;;;;5104843;28;20401;-45
2023/01/12 10:51:22;;;;;;;1.83;1.35;;;;;;;;;;5106726;28;20570;-48
2023/01/12 10:54:07;;;;;;;4.60;1.85;;;;;;;;;;5106668;28;20056;-45
2023/01/12 10:56:34;;;;;;;;;;;;;;;;;;5105835;28;20063;-45
2023/01/12 10:59:06;;;;;;;2.08;1.52;;;;;;;;;;5107321;28;20404;-44
2023/01/12 11:01:43;;;;;;;2.88;1.25;;;;;;;;;;5105834;28;20038;-44
2023/01/12 11:04:11;;;;;;;2.28;1.65;;;;;;;;;;5105185;28;20023;-45
2023/01/12 11:06:37;;;;;;;2.55;1.60;;;;;;;;;;5105251;28;20027;-44
2023/01/12 11:09:22;;;;;;;3.38;1.70;;;;;;;;;;5107306;28;20020;-46
2023/01/12 11:11:52;;;;;;;3.75;1.50;;;;;;;;;;5105208;28;20047;-45
2023/01/12 11:14:23;;;;;;;1.70;1.30;;;;;;;;;;5107519;28;20037;-45
2023/01/12 11:16:49;;;;;;;1.85;1.25;;;;;;;;;;5107770;28;20039;-45
2023/01/12 11:19:17;;;;;;;2.33;1.42;;;;;;;;;;5107044;28;20024;-47
2023/01/12 11:21:46;;;;;;;2.15;1.50;;;;;;;;;;5106987;28;20032;-46
2023/01/12 11:24:30;;;;;;;1.20;1.10;;;;;;;;;;5106339;28;20023;-44
2023/01/12 11:27:02;;;;;;;1.40;1.25;;;;;;;;;;5105002;28;20023;-44
2023/01/12 11:29:32;;;;;;;1.65;1.10;;;;;;;;;;5102951;28;20066;-48
2023/01/12 11:32:19;;;;;;;1.70;1.15;;;;;;;;;;5104939;28;20626;-44
2023/01/12 11:34:56;;;;;;;2.08;1.10;;;;;;;;;;5089616;28;20043;-44
2023/01/12 11:37:23;;;;;;;1.67;1.20;;;;;;;;;;5107317;28;20472;-43
2023/01/12 11:39:57;;;;;;;1.27;1.00;;;;;;;;;;5106435;28;20464;-46
2023/01/12 11:45:25;;;;;;;1.42;1.10;;;;;;;;;;5107167;28;20084;-47
2023/01/12 11:47:54;;;;;;;1.65;1.20;;;;;;;;;;5104024;28;20039;-47
2023/01/12 11:50:22;;;;;;;2.33;1.20;;;;;;;;;;5106298;28;20032;-46
2023/01/12 11:52:48;;;;;;;1.83;1.45;;;;;;;;;;5106008;28;20439;-44
2023/01/12 11:55:15;;;;;;;2.42;1.58;;;;;;;;;;5105174;28;20042;-46
2023/01/12 11:57:49;;;;;;;3.40;1.75;;;;;;;;;;5105266;28;20034;-48
2023/01/12 12:00:34;;;;;;;2.35;1.60;;;;;;;;;;5086570;28;20494;-45
2023/01/12 12:03:26;;;;;;;2.25;1.25;;;;;;;;;;5105268;28;20020;-47
2023/01/12 12:06:11;;;;;;;2.10;1.33;;;;;;;;;;5105707;28;20031;-46
2023/01/12 12:08:56;;;;;;;2.55;1.30;;;;;;;;;;5107767;28;20308;-45
2023/01/12 12:11:34;;;;;;;1.73;1.20;;;;;;;;;;5109084;28;20023;-46
2023/01/12 12:14:02;;;;;;;2.08;1.42;;;;;;;;;;5089011;28;20508;-46
2023/01/12 12:16:47;;;;;;;2.63;1.25;;;;;;;;;;5088247;28;20032;-48
2023/01/12 12:19:16;;;;;;;1.92;1.30;;;;;;;;;;5088074;28;20036;-44
2023/01/12 12:21:49;;;;;;;1.75;1.30;;;;;;;;;;5087940;28;20032;-45
2023/01/12 12:24:15;;;;;;;1.77;1.00;;;;;;;;;;5088405;28;20026;-46
2023/01/12 12:26:44;;;;;;;2.90;1.98;;;;;;;;;;5087640;28;20016;-44
2023/01/12 12:29:19;;;;;;;2.38;1.73;;;;;;;;;;5087997;28;20042;-45
2023/01/12 12:31:45;;;;;;;2.45;1.58;;;;;;;;;;5096785;28;20028;-47
2023/01/12 12:34:14;;;;;;;2.50;1.60;;;;;;;;;;5109591;28;20023;-44
2023/01/12 12:36:44;;;;;;;1.70;1.27;;;;;;;;;;5109730;28;20031;-47
2023/01/12 12:39:16;;;;;;;1.35;1.13;;;;;;;;;;5109927;28;20020;-45
2023/01/12 12:47:36;;;;;;;2.03;1.33;;;;;;;;;;5106364;28;20028;-44
2023/01/12 12:50:02;;;;;;;2.67;1.60;;;;;;;;;;5100444;28;20036;-45
2023/01/12 12:52:33;;;;;;;1.88;1.60;;;;;;;;;;5097963;28;20062;-46
2023/01/12 12:55:01;;;;;;;3.13;1.60;;;;;;;;;;5100993;28;20038;-44
2023/01/12 12:57:27;;;;;;;2.20;1.80;;;;;;;;;;5108339;28;20050;-48
2023/01/12 12:59:55;;;;;;;1.90;1.58;;;;;;;;;;5106740;28;20031;-46
2023/01/12 13:02:52;;;;;;;2.80;1.50;;;;;;;;;;5107897;28;20020;-45
2023/01/12 13:05:38;;;;;;;2.97;1.60;;;;;;;;;;5103450;28;20035;-46
2023/01/12 13:08:05;;;;;;;1.60;1.40;;;;;;;;;;5105835;28;20012;-45
2023/01/12 13:10:33;;;;;;;2.45;1.60;;;;;;;;;;5107655;28;20052;-45
2023/01/12 13:13:04;;;;;;;1.83;1.40;;;;;;;;;;5107490;28;20462;-44
2023/01/12 13:15:35;;;;;;;3.35;1.58;;;;;;;;;;5106678;27;20386;-45
2023/01/12 13:18:01;;;;;;;2.88;2.00;;;;;;;;;;5107576;28;20042;-47
2023/01/12 13:20:35;;;;;;;3.08;2.00;;;;;;;;;;5107589;28;20402;-45
2023/01/12 13:23:02;;;;;;;4.25;2.08;;;;;;;;;;5104233;28;20046;-45
2023/01/12 13:25:30;;;;;;;4.15;2.05;;;;;;;;;;5103519;28;20111;-48
2023/01/12 13:28:00;;;;;;;3.97;2.00;;;;;;;;;;5108300;28;20051;-46
2023/01/12 13:30:26;;;;;;;3.42;1.95;;;;;;;;;;5102185;28;20035;-45
2023/01/12 13:33:12;;;;;;;3.17;1.80;;;;;;;;;;5103282;28;20454;-47
2023/01/12 13:35:39;;;;;;;2.38;1.90;;;;;;;;;;5108336;28;20028;-47
2023/01/12 13:38:24;;;;;;;3.03;1.75;;;;;;;;;;5106622;28;20421;-45
2023/01/12 13:40:50;;;;;;;2.90;1.80;;;;;;;;;;5104430;28;20043;-44
2023/01/12 13:43:25;;;;;;;2.22;1.77;;;;;;;;;;5106693;28;20019;-46
2023/01/12 13:45:56;;;;;;;2.33;1.73;;;;;;;;;;5104999;28;20027;-47
2023/01/12 13:48:24;;;;;;;2.83;1.77;;;;;;;;;;5101950;28;20076;-44
2023/01/12 13:50:52;;;;;;;2.72;1.77;;;;;;;;;;5108137;28;20027;-46
2023/01/12 13:53:20;;;;;;;3.28;1.50;;;;;;;;;;5102906;28;20104;-44
2023/01/12 13:55:55;;;;;;;2.08;1.70;;;;;;;;;;5087184;28;20032;-45
2023/01/12 13:58:21;;;;;;;1.75;1.52;;;;;;;;;;5090487;28;20026;-48
2023/01/12 14:00:57;;;;;;;4.22;2.05;;;;;;;;;;5106248;28;20103;-46
2023/01/12 14:03:34;;;;;;;4.07;2.45;;;;;;;;;;5107222;28;20429;-45
2023/01/12 14:06:12;;;;;;;2.92;2.20;;;;;;;;;;5097747;28;20039;-47
2023/01/12 14:09:00;;;;;;;2.70;2.10;;;;;;;;;;5101709;28;20019;-44
2023/01/12 14:11:29;;;;;;;4.15;2.28;;;;;;;;;;5105014;28;20031;-45
2023/01/12 14:17:47;;;;;;;3.13;2.20;;;;;;;;;;5118015;27;20035;-45
2023/01/12 14:19:33;;;;;;;3.42;2.05;;;;;;;;;;5075446;28;20039;-45
2023/01/12 14:22:03;;;;;;;3.75;1.95;;;;;;;;;;5106427;28;20503;-45
2023/01/12 14:24:29;;;;;;;3.10;1.88;;;;;;;;;;5106443;28;20078;-46
2023/01/12 14:26:55;;;;;;;4.40;2.50;;;;;;;;;;5106540;28;20504;-46
2023/01/12 14:29:21;;;;;;;3.25;2.40;;;;;;;;;;5106975;28;20118;-46
2023/01/12 14:31:50;;;;;;;4.60;2.50;;;;;;;;;;5105076;28;20094;-45
2023/01/12 14:34:19;;;;;;;2.70;1.85;;;;;;;;;;5102523;28;20035;-46
2023/01/12 14:36:45;;;;;;;3.58;2.20;;;;;;;;;;5103752;28;20343;-45
2023/01/12 14:39:15;;;;;;;4.60;2.30;;;;;;;;;;5104379;28;20031;-46
2023/01/12 14:47:25;;;;;;;3.17;2.22;;;;;;;;;;5107086;28;20080;-45
2023/01/12 14:49:51;;;;;;;4.95;2.60;;;;;;;;;;5107765;28;20058;-45
2023/01/12 14:52:31;;;;;;;4.53;2.25;;;;;;;;;;5106769;28;20094;-45
2023/01/12 14:55:15;;;;;;;4.32;2.45;;;;;;;;;;5107056;28;20020;-48
2023/01/12 14:57:42;;;;;;;3.00;2.10;;;;;;;;;;5105840;28;20035;-47
2023/01/12 15:00:18;;;;;;;4.43;2.65;;;;;;;;;;5107051;28;20039;-46
2023/01/12 15:02:48;;;;;;;3.50;2.20;;;;;;;;;;5104391;28;20046;-46
2023/01/12 15:05:19;;;;;;;2.95;2.15;;;;;;;;;;5105933;28;20055;-45
2023/01/12 15:07:51;;;;;;;2.58;1.77;;;;;;;;;;5105349;28;20016;-46
2023/01/12 15:10:17;;;;;;;2.72;1.90;;;;;;;;;;5105580;28;20028;-46
2023/01/12 15:12:51;;;;;;;3.92;2.47;;;;;;;;;;5104241;28;20080;-46
2023/01/12 15:15:17;;;;;;;2.92;2.10;;;;;;;;;;5104654;28;20043;-45
2023/01/12 15:26:02;;;;;;;;;;;;;;;;;;5095835;28;20035;-46
2023/01/12 15:28:29;;;;;;;3.75;2.38;;;;;;;;;;5105687;28;19981;-48
2023/01/12 15:30:55;;;;;;;3.60;2.38;;;;;;;;;;5105675;28;20031;-45
2023/01/12 15:33:21;;;;;;;4.30;2.45;;;;;;;;;;5103690;28;20030;-45
2023/01/12 15:35:47;;;;;;;4.30;2.30;;;;;;;;;;5101863;28;20046;-46
2023/01/12 15:38:17;;;;;;;3.88;2.55;;;;;;;;;;5106461;28;20032;-47
2023/01/12 15:40:45;;;;;;;4.82;2.40;;;;;;;;;;5107048;28;20027;-48
2023/01/12 15:43:15;;;;;;;4.10;2.45;;;;;;;;;;5106596;27;20501;-47
2023/01/12 15:45:42;;;;;;;4.07;2.40;;;;;;;;;;5108323;28;20081;-45
2023/01/12 15:48:09;;;;;;;4.13;2.47;;;;;;;;;;5093416;28;20032;-44
2023/01/12 15:50:39;;;;;;;3.72;2.35;;;;;;;;;;5103965;28;20027;-46
2023/01/12 15:53:11;;;;;;;3.08;2.33;;;;;;;;;;5101055;28;20080;-46
2023/01/12 15:55:38;;;;;;;4.43;2.67;;;;;;;;;;5107338;28;20652;-44
2023/01/12 15:58:04;;;;;;;2.75;2.35;;;;;;;;;;5107921;28;20106;-46
2023/01/12 16:00:30;;;;;;;4.43;2.92;;;;;;;;;;5104549;28;20023;-44
2023/01/12 16:02:56;;;;;;;4.07;2.85;;;;;;;;;;5108679;28;20031;-44
2023/01/12 16:05:25;;;;;;;5.07;2.70;;;;;;;;;;5106625;28;20012;-47
2023/01/12 16:07:51;;;;;;;4.85;2.83;;;;;;;;;;5105093;28;20740;-44
2023/01/12 16:10:18;;;;;;;5.30;2.83;;;;;;;;;;5108622;28;20028;-45
2023/01/12 16:12:44;;;;;;;4.68;2.85;;;;;;;;;;5107003;28;20031;-45
2023/01/12 16:15:15;;;;;;;3.95;2.80;;;;;;;;;;5107914;28;20386;-49
2023/01/12 16:17:41;;;;;;;4.75;3.10;;;;;;;;;;5105322;28;20028;-48
2023/01/12 16:20:08;;;;;;;5.78;3.42;;;;;;;;;;5108237;28;20565;-46
2023/01/12 16:22:34;;;;;;;6.70;3.35;;;;;;;;;;5106299;28;20039;-49
2023/01/12 16:25:00;;;;;;;4.13;2.63;;;;;;;;;;5103226;28;20027;-46
2023/01/12 16:27:27;;;;;;;5.78;3.20;;;;;;;;;;5106394;28;20028;-47
2023/01/12 16:29:53;;;;;;;6.30;3.22;;;;;;;;;;5108330;28;20016;-46
2023/01/12 16:32:26;;;;;;;5.15;3.17;;;;;;;;;;5108255;28;20023;-45
2023/01/12 16:34:52;;;;;;;5.75;3.80;;;;;;;;;;5102598;28;20509;-45
2023/01/12 16:37:21;;;;;;;4.28;2.95;;;;;;;;;;5106319;28;20077;-44
2023/01/12 16:39:48;;;;;;;5.30;3.33;;;;;;;;;;5105965;28;20019;-47
2023/01/12 16:42:14;;;;;;;4.63;3.45;;;;;;;;;;5105180;28;20046;-45
2023/01/12 16:44:40;;;;;;;4.97;3.47;;;;;;;;;;5102303;28;20119;-49
2023/01/12 16:47:14;;;;;;;4.22;2.95;;;;;;;;;;5109986;28;20050;-45
2023/01/12 16:49:40;;;;;;;6.03;3.63;;;;;;;;;;5108576;28;20043;-46
2023/01/12 16:52:09;;;;;;;5.10;3.20;;;;;;;;;;5107853;28;20031;-45
2023/01/12 16:54:40;;;;;;;4.70;2.90;;;;;;;;;;5107750;28;20029;-45
2023/01/12 16:57:06;;;;;;;4.05;2.75;;;;;;;;;;5107992;28;20032;-45
2023/01/12 16:59:32;;;;;;;3.55;2.60;;;;;;;;;;5107420;28;20548;-45
2023/01/12 17:01:58;;;;;;;4.38;3.20;;;;;;;;;;5107071;28;20031;-46
2023/01/12 17:04:25;;;;;;;4.05;2.95;;;;;;;;;;5107433;28;20102;-45
2023/01/12 17:06:51;;;;;;;6.13;3.55;;;;;;;;;;5107432;28;20059;-49
2023/01/12 17:09:17;;;;;;;5.68;3.40;;;;;;;;;;5107825;28;20047;-45
2023/01/12 17:11:43;;;;;;;5.88;3.50;;;;;;;;;;5107782;28;20036;-46
2023/01/12 17:14:24;;;;;;;4.63;3.30;;;;;;;;;;5107361;28;20020;-45
2023/01/12 17:16:51;;;;;;;5.18;3.10;;;;;;;;;;5107376;28;20027;-46
2023/01/12 17:19:19;;;;;;;3.78;2.90;;;;;;;;;;5107253;28;20049;-45
2023/01/12 17:21:45;;;;;;;4.30;3.05;;;;;;;;;;5107288;28;20056;-44
2023/01/12 17:24:11;;;;;;;6.30;3.35;;;;;;;;;;5107036;28;20319;-45
2023/01/12 17:26:39;;;;;;;4.95;3.15;;;;;;;;;;5107172;28;20023;-45
2023/01/12 17:29:06;;;;;;;5.13;3.10;;;;;;;;;;5107706;28;20020;-45
2023/01/12 17:31:32;;;;;;;4.43;3.05;;;;;;;;;;5107825;28;20024;-45
2023/01/12 17:33:59;;;;;;;3.55;2.53;;;;;;;;;;5106686;28;20037;-45
2023/01/12 17:36:25;;;;;;;5.32;3.40;;;;;;;;;;5107033;28;20030;-44
2023/01/12 17:38:52;;;;;;;4.38;3.28;;;;;;;;;;5107034;28;20031;-43
2023/01/12 17:44:04;;;;;;;5.32;3.15;;;;;;;;;;5107415;28;20038;-45
2023/01/12 17:46:30;;;;;;;3.58;2.63;;;;;;;;;;5106780;28;20541;-45
2023/01/12 17:49:03;;;;;;;4.50;2.67;;;;;;;;;;5106660;28;20142;-45
2023/01/12 17:51:29;;;;;;;4.03;2.78;;;;;;;;;;5106561;28;20504;-46
2023/01/12 17:53:56;;;;;;;5.10;3.22;;;;;;;;;;5106471;28;20031;-47
2023/01/12 17:56:23;;;;;;;7.35;3.53;;;;;;;;;;5106820;28;20486;-44
2023/01/12 17:58:49;;;;;;;5.20;2.88;;;;;;;;;;5106447;28;20049;-45
2023/01/12 18:01:16;;;;;;;4.82;2.97;;;;;;;;;;5106559;28;20028;-45
2023/01/12 18:03:42;;;;;;;5.03;3.13;;;;;;;;;;5105972;28;20111;-44
2023/01/12 18:06:08;;;;;;;5.45;3.45;;;;;;;;;;5105743;28;20059;-48
2023/01/12 18:08:36;;;;;;;5.68;3.50;;;;;;;;;;5107378;28;20020;-45
2023/01/12 18:11:02;;;;;;;5.63;3.38;;;;;;;;;;5107822;28;20027;-45
2023/01/12 18:13:28;;;;;;;5.95;3.97;;;;;;;;;;5107874;28;20398;-44
2023/01/12 18:15:54;;;;;;;8.27;4.72;;;;;;;;;;5108145;28;20069;-44
2023/01/12 18:18:21;;;;;;;8.48;5.28;;;;;;;;;;5107990;28;20027;-45
2023/01/12 18:20:51;;;;;;;7.75;4.93;;;;;;;;;;5107557;28;20028;-44
2023/01/12 18:23:17;;;;;;;9.23;4.78;;;;;;;;;;5107569;28;20028;-46
2023/01/12 18:25:44;;;;;;;6.15;4.45;;;;;;;;;;5107866;28;20027;-45
2023/01/12 18:28:09;;;;;;;7.68;4.43;;;;;;;;;;5107692;28;20027;-45
2023/01/12 18:30:37;;;;;;;6.72;4.57;;;;;;;;;;5107661;28;20039;-46
2023/01/12 18:33:03;;;;;;;8.65;4.93;;;;;;;;;;5107828;28;20039;-46
2023/01/12 18:35:29;;;;;;;9.18;5.25;;;;;;;;;;5107667;28;20038;-46
2023/01/12 18:37:55;;;;;;;7.50;4.20;;;;;;;;;;5107486;28;20043;-43
2023/01/12 18:40:22;;;;;;;7.18;4.50;;;;;;;;;;5107438;28;20474;-46
2023/01/12 18:42:52;;;;;;;6.68;4.18;;;;;;;;;;5107376;28;20462;-45
2023/01/12 18:45:26;;;;;;;8.32;4.93;;;;;;;;;;5107244;28;20034;-46
2023/01/12 18:53:24;;;;;;;9.60;4.95;;;;;;;;;;5107341;28;19915;-45
2023/01/12 18:55:55;;;;;;;8.35;4.75;;;;;;;;;;5107431;28;20027;-46
2023/01/12 18:58:29;;;;;;;7.82;4.63;;;;;;;;;;5107588;28;20054;-46
2023/01/12 19:01:14;;;;;;;7.85;4.57;;;;;;;;;;5107323;28;20645;-45
2023/01/12 19:03:40;;;;;;;7.25;3.90;;;;;;;;;;5105270;28;20020;-46
2023/01/12 19:06:27;;;;;;;6.10;3.38;;;;;;;;;;5101953;28;20027;-45
2023/01/12 19:11:39;;;;;;;5.03;3.08;;;;;;;;;;5106518;28;20103;-45
2023/01/12 19:19:35;;;;;;;3.92;2.15;;;;;;;;;;5113137;28;20062;-45
2023/01/12 19:30:18;;;;;;;3.88;2.25;;;;;;;;;;5108707;28;20101;-47
2023/01/12 19:32:44;;;;;;;3.20;2.25;;;;;;;;;;5091741;28;20028;-49
2023/01/12 19:35:10;;;;;;;2.30;1.63;;;;;;;;;;5109966;28;20107;-48
2023/01/12 19:37:36;;;;;;;4.35;2.30;;;;;;;;;;5109794;28;20414;-47
2023/01/12 19:40:09;;;;;;;3.00;2.15;;;;;;;;;;5108770;28;20027;-45
2023/01/12 19:45:20;;;;;;;4.57;2.80;;;;;;;;;;5093941;28;20042;-47
2023/01/12 19:47:47;;;;;;;6.78;3.97;;;;;;;;;;5100799;28;20051;-49
2023/01/12 19:50:14;;;;;;;8.60;4.13;;;;;;;;;;5097519;28;20032;-46
2023/01/12 19:52:41;;;;;;;8.18;4.13;;;;;;;;;;5074901;28;20430;-46
2023/01/12 19:55:08;;;;;;;6.80;3.80;;;;;;;;;;5092261;28;20067;-47
2023/01/12 19:57:35;;;;;;;8.70;4.38;;;;;;;;;;5109462;28;20028;-48
2023/01/12 20:00:01;;;;;;;8.38;3.95;;;;;;;;;;5108124;28;20035;-45
2023/01/12 20:02:27;;;;;;;5.85;3.45;;;;;;;;;;5109104;28;20023;-48
2023/01/12 20:04:53;;;;;;;7.53;4.72;;;;;;;;;;5106544;28;20077;-49
2023/01/12 20:07:20;;;;;;;7.45;3.65;;;;;;;;;;5106837;28;20098;-46
2023/01/12 20:09:46;;;;;;;8.02;4.30;;;;;;;;;;5088975;28;20504;-49
2023/01/12 20:12:13;;;;;;;7.65;4.35;;;;;;;;;;5088202;28;20339;-46
2023/01/12 20:14:40;;;;;;;7.18;3.90;;;;;;;;;;5107571;28;20020;-50
2023/01/12 20:17:07;;;;;;;7.18;4.68;;;;;;;;;;5087567;28;20028;-46
2023/01/12 20:19:33;;;;;;;6.80;3.97;;;;;;;;;;5107220;28;20394;-46
2023/01/12 20:21:59;;;;;;;10.00;4.63;;;;;;;;;;5107156;28;20031;-49
2023/01/12 20:24:25;;;;;;;7.53;4.40;;;;;;;;;;5106981;28;20051;-48
2023/01/12 20:26:51;;;;;;;7.25;4.45;;;;;;;;;;5105390;27;20051;-46
2023/01/12 20:29:18;;;;;;;6.88;3.83;;;;;;;;;;5105972;28;20484;-48
2023/01/12 20:31:44;;;;;;;8.23;4.35;;;;;;;;;;5079400;28;20077;-48
2023/01/12 20:34:10;;;;;;;8.30;4.60;;;;;;;;;;5086629;28;20402;-48
2023/01/12 20:36:37;;;;;;;7.05;4.72;;;;;;;;;;5085851;28;20110;-49
2023/01/12 20:39:03;;;;;;;8.13;4.88;;;;;;;;;;5085423;28;20502;-46
2023/01/12 20:41:29;;;;;;;8.65;5.13;;;;;;;;;;5085672;28;20399;-46
2023/01/12 20:43:56;;;;;;;7.82;4.80;;;;;;;;;;5068084;28;20085;-50
2023/01/12 20:46:23;;;;;;;8.25;5.07;;;;;;;;;;5085842;28;20055;-45
2023/01/12 20:48:49;;;;;;;10.13;5.38;;;;;;;;;;5067789;28;20031;-46
2023/01/12 20:51:16;;;;;;;8.82;4.75;;;;;;;;;;5084754;28;20036;-46
2023/01/12 20:53:42;;;;;;;7.30;4.35;;;;;;;;;;5085700;28;20479;-49
2023/01/12 20:56:08;;;;;;;6.55;4.40;;;;;;;;;;5066875;28;20081;-47
2023/01/12 20:58:34;;;;;;;7.38;4.13;;;;;;;;;;5086044;28;20031;-48
2023/01/12 21:01:01;;;;;;;7.80;4.63;;;;;;;;;;5086062;28;20031;-48
2023/01/12 21:03:28;;;;;;;8.15;4.32;;;;;;;;;;5084863;28;20020;-47
2023/01/12 21:05:54;;;;;;;6.43;3.95;;;;;;;;;;5084625;28;20059;-47
2023/01/12 21:08:20;;;;;;;5.78;3.75;;;;;;;;;;5084870;28;20616;-45
2023/01/12 21:10:48;;;;;;;5.60;3.70;;;;;;;;;;5086779;28;20024;-48
2023/01/12 21:13:14;;;;;;;6.40;3.95;;;;;;;;;;5086711;28;20028;-45